createdAt,value
2022-10-10T00:01:22.360Z,0.00
2022-10-10T00:06:22.313Z,0.00
2022-10-10T00:11:22.230Z,0.00
2022-10-10T00:16:22.156Z,0.00
2022-10-10T00:21:22.069Z,0.00
2022-10-10T00:26:22.007Z,0.00
2022-10-10T00:31:21.918Z,0.00
2022-10-10T00:36:21.893Z,0.00
2022-10-10T00:41:21.801Z,0.00
2022-10-10T00:46:21.764Z,0.00
2022-10-10T00:51:21.692Z,0.00
2022-10-10T00:56:21.620Z,0.00
2022-10-10T01:01:28.868Z,0.00
2022-10-10T01:06:29.527Z,0.00
2022-10-10T01:11:21.444Z,0.00
2022-10-10T01:16:21.352Z,0.00
2022-10-10T01:21:21.278Z,0.00
2022-10-10T01:26:21.807Z,0.00
2022-10-10T01:31:21.178Z,0.00
2022-10-10T01:36:21.104Z,0.00
2022-10-10T01:41:21.199Z,0.00
2022-10-10T01:46:21.095Z,0.00
2022-10-10T01:51:20.857Z,0.00
2022-10-10T01:56:20.943Z,0.00
2022-10-10T02:01:21.124Z,0.00
2022-10-10T02:06:20.639Z,0.00
2022-10-10T02:11:20.644Z,0.00
2022-10-10T02:16:20.526Z,0.00
2022-10-10T02:21:20.462Z,0.00
2022-10-10T02:26:20.374Z,0.00
2022-10-10T02:31:20.306Z,0.00
2022-10-10T02:36:20.264Z,0.00
2022-10-10T02:41:20.164Z,0.00
2022-10-10T02:46:20.105Z,0.00
2022-10-10T02:51:20.805Z,0.00
2022-10-10T02:56:19.970Z,0.00
2022-10-10T03:01:20.116Z,0.00
2022-10-10T03:06:19.805Z,0.00
2022-10-10T03:11:19.742Z,0.00
2022-10-10T03:16:19.689Z,0.00
2022-10-10T03:21:19.604Z,0.00
2022-10-10T03:26:19.535Z,0.00
2022-10-10T03:31:19.476Z,0.00
2022-10-10T03:36:19.404Z,0.00
2022-10-10T03:41:19.364Z,0.00
2022-10-10T03:46:19.295Z,0.00
2022-10-10T03:51:19.241Z,0.00
2022-10-10T03:56:19.170Z,0.00
2022-10-10T04:01:19.154Z,0.00
2022-10-10T04:06:19.065Z,0.00
2022-10-10T04:11:18.988Z,0.00
2022-10-10T04:16:18.908Z,0.00
2022-10-10T04:21:18.811Z,0.00
2022-10-10T04:26:18.768Z,0.00
2022-10-10T04:31:18.674Z,0.00
2022-10-10T04:36:18.632Z,0.00
2022-10-10T04:41:26.663Z,4.00
2022-10-10T04:46:18.461Z,4.00
2022-10-10T04:51:18.392Z,8.00
2022-10-10T04:56:18.332Z,16.00
2022-10-10T05:01:18.288Z,48.00
2022-10-10T05:06:18.214Z,108.00
2022-10-10T05:11:18.251Z,204.00
2022-10-10T05:16:18.085Z,336.00
2022-10-10T05:21:18.162Z,504.00
2022-10-10T05:26:17.945Z,744.00
2022-10-10T05:31:17.879Z,1092.00
2022-10-10T05:36:17.816Z,1528.00
2022-10-10T05:41:17.757Z,1896.00
2022-10-10T05:46:17.702Z,2320.00
2022-10-10T05:51:17.641Z,2548.00
2022-10-10T05:56:17.581Z,2944.00
2022-10-10T06:01:17.493Z,3608.00
2022-10-10T06:06:17.449Z,5888.00
2022-10-10T06:11:17.372Z,10616.00
2022-10-10T06:16:17.460Z,17280.00
2022-10-10T06:21:17.281Z,21856.00
2022-10-10T06:26:17.162Z,21344.00
2022-10-10T06:31:17.108Z,29280.00
2022-10-10T06:36:17.025Z,23360.00
2022-10-10T06:41:16.938Z,24704.00
2022-10-10T06:46:16.913Z,14464.00
2022-10-10T06:51:16.837Z,21984.00
2022-10-10T06:56:16.786Z,12168.00
2022-10-10T07:01:16.723Z,13536.00
2022-10-10T07:06:16.628Z,7816.00
2022-10-10T07:11:16.599Z,6684.00
2022-10-10T07:16:16.659Z,6708.00
2022-10-10T07:21:16.564Z,7188.00
2022-10-10T07:26:16.350Z,7408.00
2022-10-10T07:31:16.290Z,8140.00
2022-10-10T07:36:16.200Z,8212.00
2022-10-10T07:41:16.139Z,8608.00
2022-10-10T07:46:16.091Z,8952.00
2022-10-10T07:51:16.001Z,8596.00
2022-10-10T07:56:15.979Z,8268.00
2022-10-10T08:01:15.885Z,8488.00
2022-10-10T08:06:15.798Z,9112.00
2022-10-10T08:11:15.753Z,12360.00
2022-10-10T08:16:15.681Z,15100.00
2022-10-10T08:21:15.611Z,9908.00
2022-10-10T08:26:15.553Z,9276.00
2022-10-10T08:31:15.522Z,9796.00
2022-10-10T08:36:15.472Z,10232.00
2022-10-10T08:41:15.414Z,10556.00
2022-10-10T08:46:15.349Z,11292.00
2022-10-10T08:51:15.223Z,11212.00
2022-10-10T08:56:15.143Z,11156.00
2022-10-10T09:01:15.159Z,10884.00
2022-10-10T09:06:15.019Z,10912.00
2022-10-10T09:11:14.934Z,11032.00
2022-10-10T09:16:14.887Z,11100.00
2022-10-10T09:21:14.860Z,11176.00
2022-10-10T09:26:14.856Z,10732.00
2022-10-10T09:31:14.870Z,10432.00
2022-10-10T09:36:14.625Z,10964.00
2022-10-10T09:41:14.522Z,12668.00
2022-10-10T09:46:14.456Z,13668.00
2022-10-10T09:51:14.380Z,12552.00
2022-10-10T09:56:14.316Z,12192.00
2022-10-10T10:01:14.310Z,12648.00
2022-10-10T10:06:14.181Z,11588.00
2022-10-10T10:11:14.112Z,12920.00
2022-10-10T10:16:14.045Z,11888.00
2022-10-10T10:21:13.985Z,10700.00
2022-10-10T10:26:13.947Z,10384.00
2022-10-10T10:31:13.920Z,10796.00
2022-10-10T10:36:13.923Z,10736.00
2022-10-10T10:41:13.748Z,10972.00
2022-10-10T10:46:13.690Z,10440.00
2022-10-10T10:51:13.575Z,9568.00
2022-10-10T10:56:13.534Z,9776.00
2022-10-10T11:01:38.769Z,9620.00
2022-10-10T11:06:14.520Z,9420.00
2022-10-10T11:11:13.340Z,8984.00
2022-10-10T11:16:36.298Z,9016.00
2022-10-10T11:21:14.188Z,8780.00
2022-10-10T11:26:13.142Z,8036.00
2022-10-10T11:31:13.071Z,7716.00
2022-10-10T11:36:12.999Z,7496.00
2022-10-10T11:41:13.100Z,7576.00
2022-10-10T11:46:12.850Z,7440.00
2022-10-10T11:51:16.149Z,7320.00
2022-10-10T11:56:12.729Z,7456.00
2022-10-10T12:01:19.734Z,8268.00
2022-10-10T12:06:12.580Z,7008.00
2022-10-10T12:11:12.524Z,6204.00
2022-10-10T12:16:12.467Z,5920.00
2022-10-10T12:21:12.369Z,6852.00
2022-10-10T12:26:12.335Z,7384.00
2022-10-10T12:31:12.254Z,8012.00
2022-10-10T12:36:12.216Z,8820.00
2022-10-10T12:41:12.880Z,9104.00
2022-10-10T12:46:12.276Z,8236.00
2022-10-10T12:51:11.958Z,5804.00
2022-10-10T12:56:11.915Z,5236.00
2022-10-10T13:01:11.859Z,4860.00
2022-10-10T13:06:11.789Z,5064.00
2022-10-10T13:11:11.713Z,5468.00
2022-10-10T13:16:11.642Z,5440.00
2022-10-10T13:21:11.630Z,5472.00
2022-10-10T13:26:12.307Z,5792.00
2022-10-10T13:31:11.492Z,5724.00
2022-10-10T13:36:11.417Z,5576.00
2022-10-10T13:41:11.304Z,5432.00
2022-10-10T13:46:11.268Z,5384.00
2022-10-10T13:51:11.401Z,5336.00
2022-10-10T13:56:11.613Z,5396.00
2022-10-10T14:01:11.088Z,5156.00
2022-10-10T14:06:11.020Z,5176.00
2022-10-10T14:11:10.905Z,4832.00
2022-10-10T14:16:10.869Z,5160.00
2022-10-10T14:21:10.774Z,4788.00
2022-10-10T14:26:10.731Z,4428.00
2022-10-10T14:31:10.735Z,4012.00
2022-10-10T14:36:10.569Z,3868.00
2022-10-10T14:41:10.493Z,3664.00
2022-10-10T14:46:10.438Z,3704.00
2022-10-10T14:51:34.183Z,3324.00
2022-10-10T14:56:11.385Z,3040.00
2022-10-10T15:01:10.213Z,3272.00
2022-10-10T15:06:10.147Z,2936.00
2022-10-10T15:11:10.113Z,2584.00
2022-10-10T15:16:10.022Z,2440.00
2022-10-10T15:21:09.969Z,2644.00
2022-10-10T15:26:09.903Z,2764.00
2022-10-10T15:31:09.854Z,2492.00
2022-10-10T15:36:11.500Z,2264.00
2022-10-10T15:41:09.694Z,1936.00
2022-10-10T15:46:09.624Z,1704.00
2022-10-10T15:51:09.608Z,1480.00
2022-10-10T15:56:10.348Z,1224.00
2022-10-10T16:01:09.575Z,960.00
2022-10-10T16:06:09.385Z,720.00
2022-10-10T16:11:09.348Z,484.00
2022-10-10T16:16:09.291Z,304.00
2022-10-10T16:21:09.279Z,188.00
2022-10-10T16:26:09.215Z,108.00
2022-10-10T16:31:09.075Z,52.00
2022-10-10T16:36:09.019Z,24.00
2022-10-10T16:41:19.686Z,12.00
2022-10-10T16:46:09.933Z,4.00
2022-10-10T16:51:09.122Z,4.00
2022-10-10T16:56:08.769Z,0.00
2022-10-10T17:01:09.218Z,0.00
2022-10-10T17:06:08.589Z,0.00
2022-10-10T17:11:08.560Z,0.00
2022-10-10T17:16:44.699Z,0.00
2022-10-10T17:21:09.363Z,0.00
2022-10-10T17:26:08.328Z,0.00
2022-10-10T17:31:08.229Z,0.00
2022-10-10T17:36:08.232Z,0.00
2022-10-10T17:41:08.229Z,0.00
2022-10-10T17:46:32.614Z,0.00
2022-10-10T17:51:08.956Z,0.00
2022-10-10T17:56:08.109Z,0.00
2022-10-10T18:01:07.876Z,0.00
2022-10-10T18:06:07.853Z,0.00
2022-10-10T18:11:13.029Z,0.00
2022-10-10T18:16:08.617Z,0.00
2022-10-10T18:21:07.604Z,0.00
2022-10-10T18:26:07.548Z,0.00
2022-10-10T18:31:12.963Z,0.00
2022-10-10T18:36:08.489Z,0.00
2022-10-10T18:41:07.301Z,0.00
2022-10-10T18:46:07.295Z,0.00
2022-10-10T18:51:07.433Z,0.00
2022-10-10T18:56:07.105Z,0.00
2022-10-10T19:01:07.635Z,0.00
2022-10-10T19:06:07.464Z,0.00
2022-10-10T19:11:07.451Z,0.00
2022-10-10T19:16:06.955Z,0.00
2022-10-10T19:21:13.886Z,0.00
2022-10-10T19:26:14.170Z,0.00
2022-10-10T19:31:13.790Z,0.00
2022-10-10T19:36:06.879Z,0.00
2022-10-10T19:41:06.924Z,0.00
2022-10-10T19:46:07.015Z,0.00
2022-10-10T19:51:07.365Z,0.00
2022-10-10T19:56:06.901Z,0.00
2022-10-10T20:01:06.334Z,0.00
2022-10-10T20:06:06.673Z,0.00
2022-10-10T20:11:06.923Z,0.00
2022-10-10T20:16:06.569Z,0.00
2022-10-10T20:21:06.031Z,0.00
2022-10-10T20:26:06.422Z,0.00
2022-10-10T20:31:05.884Z,0.00
2022-10-10T20:36:06.070Z,0.00
2022-10-10T20:41:05.799Z,0.00
2022-10-10T20:46:06.192Z,0.00
2022-10-10T20:51:05.744Z,0.00
2022-10-10T20:56:06.175Z,0.00
2022-10-10T21:01:05.483Z,0.00
2022-10-10T21:06:05.608Z,0.00
2022-10-10T21:11:11.740Z,0.00
2022-10-10T21:16:05.714Z,0.00
2022-10-10T21:21:05.418Z,0.00
2022-10-10T21:26:05.552Z,0.00
2022-10-10T21:31:12.133Z,0.00
2022-10-10T21:36:05.253Z,0.00
2022-10-10T21:41:05.337Z,0.00
2022-10-10T21:46:05.223Z,0.00
2022-10-10T21:51:04.770Z,0.00
2022-10-10T21:56:04.986Z,0.00
2022-10-10T22:01:04.725Z,0.00
2022-10-10T22:06:04.993Z,0.00
2022-10-10T22:11:04.546Z,0.00
2022-10-10T22:16:04.853Z,0.00
2022-10-10T22:21:04.384Z,0.00
2022-10-10T22:26:04.705Z,0.00
2022-10-10T22:31:04.296Z,0.00
2022-10-10T22:36:04.558Z,0.00
2022-10-10T22:41:04.988Z,0.00
2022-10-10T22:46:04.245Z,0.00
2022-10-10T22:51:04.022Z,0.00
2022-10-10T22:56:04.227Z,0.00
2022-10-10T23:01:10.939Z,0.00
2022-10-10T23:06:11.166Z,0.00
2022-10-10T23:11:03.717Z,0.00
2022-10-10T23:16:04.059Z,0.00
2022-10-10T23:21:03.616Z,0.00
2022-10-10T23:26:03.939Z,0.00
2022-10-10T23:31:03.464Z,0.00
2022-10-10T23:36:03.777Z,0.00
2022-10-10T23:41:03.317Z,0.00
2022-10-10T23:46:03.714Z,0.00
2022-10-10T23:51:03.216Z,0.00
2022-10-10T23:56:03.475Z,0.00
